This site, now in its 15th season, is a labour of love and fun from one of Ottawa's most avid time trialists and number crunchers. It adheres to and is permitted by the laws of Canada, promotes the objectives of every bicycle club whose results are shown, and is donated free of charge by myself for your enjoyment and usage. If you would like results from series you ride in to be shown here, give me (celia@drmath.ca) a shout!


Index Page
ATT OTT WTT AATT CFCTT VVVTT
Help resultformat:
Case-sensitive

OBC Open TT Series - 2018-Aug-02 - 15km (Rockliffe Pkwy)

Ottawa Weather (18:00): Mostly Cloudy. Temp.erature: 27.8C, Wind: SW 16km/h, Humidex: 34, Relative humidity: 53%, Dew point: 18C, Pressure: 101.6kPa, Visibility: 24km.
Ottawa Weather (19:00): Mostly Cloudy. Temp.erature: 27.0C, Wind: SSW 13km/h, Humidex: 34, Relative humidity: 61%, Dew point: 19C, Pressure: 101.5kPa, Visibility: 24km.
Ottawa Weather (20:00): Mostly Cloudy. Temp.erature: 24.9C, Wind: S 14km/h, Humidex: 32, Relative humidity: 68%, Dew point: 19C, Pressure: 101.6kPa, Visibility: 24km.

Send photos with description (when/where/what) of yourself on or off of bike to celia@drmath.ca

 
 

BESTS?
 
1 Purificati, Justin RWR 19:10 46.957 1/51 SEM 1/6 0.9387
2 Miles, Carson OBC 19:25 46.352 2/51 JUM 1/1 0.9345
3 Rendall, Glen  RWR 19:29 46.193 3/51 VBM 1/12 1.0416
4 Sherboneau, Mark RWR 19:34 45.997 4/51 VBM 2/12 0.9523
5 Rubarth, Max IND 19:58 45.075 5/51 SEM 2/6 0.9435
6 Boileau, Greg NTF 20:04 44.850 6/51 VAM 1/4 1.0327
7 Parniak, Robert  CYC 20:17 44.371 7/51 VBM 3/12  
8 Pérès, Erwan IND 20:29 43.938 8/51 VBM 4/12 0.9854
9 Moon, Clay RWR 20:47 43.304 9/51 SEM 3/6 0.9227
10 Boers, Daniel OBC 21:01 42.823 10/51 SEM 4/6 0.9670
11 Schuck, Peter  OBC/RWR 21:15 42.353 11/51 VDM 1/8 0.9674
12 Campbell, Colin  OBC 21:28 41.925 12/51 VCM 1/8 1.0235
13 Page, Graham OBC/NTF 21:43 41.443 13/51 VAM 2/4 0.9391
14 Corner, Doug  OBC 22:00 40.909 14/51 VDM 2/8 1.1651
15 Budgell, Glen  OBC 22:01 40.878 15/51 VDM 3/8 1.0000
16 Thompson, William OBC 22:20 40.299 16/51 VCM 2/8 1.0640
17 Till, Michael WQW 22:22 40.238 17/51 VCM 3/8 0.9690
18 Wright, David OBC 22:23 40.208 18/51 VCM 4/8 0.9932
19 Corpuz, John OBC 22:28 40.059 19/51 VAM 3/4 0.9845
Wolfson, Naomi Lynne OBC 22:28 40.059 19/51 VAF 1/1  
21 Rivoche, Michael WQW 22:46 39.531 21/51 VDM 4/8 0.9868
22 Clarke, Shawn SRC/CYC 22:51 39.387 22/51 VAM 4/4 0.9611
23 Deschamps, Martin WQW 23:00 39.130 23/51 VBM 5/12 0.9870
24 Manjikian, Sevak OBC 23:12 38.793 24/51 VBM 6/12 0.9596
25 Posthuma, Hans  OBC 23:19 38.599 25/51 VDM 5/8 0.9872
26 Lage, Rick OBC 23:20 38.571 26/51 VCM 5/8 0.9432
27 Davis, Doug OBC 23:21 38.544 27/51 VCM 6/8 0.9936
28 Messier, Jill WQW 23:24 38.462 28/51 SEF 1/2 0.9600
29 Metsaranta, Juha OBC 23:30 38.298 29/51 VBM 7/12 0.9894
30 Deavy, Carol  OBC 23:53 37.683 30/51 VCF 1/2 0.9668
31 Freundorfer, Peter OBC 23:58 37.552 31/51 SEM 5/6 0.8838
32 Buffa, Alex  OBC 24:01 37.474 32/51 VBM 8/12 0.9651
33 Lavergne, Jazmine OBC 24:04 37.396 33/51 CAF 1/1 1.0125
Meyer, Lisa  EUR 24:04 37.396 33/51 VCF 2/2 0.9055
35 Gustyn, Andrew EUR 24:12 37.190 35/51 VCM 7/8 1.0083
36 Moerman, Bram  OBC 24:14 37.139 36/51 VEM 1/3 0.9335
37 Boulanger, Gaetan  IND 24:27 36.810 37/51 VEM 2/3 0.9757
38 Gilchrist, Ryan  OBC 24:36 36.585 38/51 VCM 8/8 0.9074
39 Déry, Nicolas  OBC 24:49 36.266 39/51 VBM 9/12 0.9544
Y 40 Gervais, Dominique OBC 24:52 36.193 40/51 JUF 1/2 1.0890
41 Veilleux, François OBC 24:55 36.120 41/51 VBM 10/12 1.0080
42 Austen, Ian  OBC 25:16 35.620 42/51 VDM 6/8 1.0080
43 Shand, Peter OBC 25:20 35.526 43/51 VDM 7/8 1.0238
44 Burdett, Avery  OBC 25:24 35.433 44/51 VEM 3/3 0.9843
45 Fortier, Frederic OBC 26:56 33.416 45/51 VBM 11/12 0.9418
Weir Weiss, Mary-Jo OBC 26:56 33.416 45/51 SEF 2/2  
47 Tardif, Magalie OBC 27:07 33.190 47/51 JUF 2/2 0.9493
48 McInnis, Celia  OBC/ABC 27:16 33.007 48/51 VDF 1/1 0.9619
49 Patterson, Craig OBC 28:02 32.105 49/51 SEM 6/6 0.9718
50 Monette, Gary WQW 28:18 31.802 50/51 VDM 8/8 0.8781
51 O'Loan, Tim OBC 28:19 31.783 51/51 VBM 12/12  
 
Average Speed of all of the above 51 finishes (765km in 19:50:24):38.558
>>>Average of the Average Speeds for these 51 finishes38.954<<<
 

The number of data records shown above is 51
The server processing of your query took: 1 wallclock secs ( 0.08 usr + 0.00 sys = 0.08 CPU)

Thanks to our Helpers: Michel Bernier, Mark Manners, Alex McKnight, Jess Raymond, Peter Tregunno

     


Mar 30 (Good Friday)
May 1 (10km) May 3 May 8 (10km) May 10 May 15 (10km) May 17 May 22 (10km) May 24 May 29 (10km) May 31
Jun 5 Jun 5 Jun 7 Jun 12 Jun 12 Jun 14 Jun 17 (40km) Jun 19 Jun 19 Jun 21 Jun 26 Jun 26 Jun 28
Jul 3 Jul 3 Jul 5 Jul 8 (40km) Jul 10 Jul 10 Jul 12 Jul 17 Jul 17 Jul 19 Jul 24 Jul 24 Jul 26 Jul 31 Jul 31
  Aug 2  
Aug 5 (40km) Aug 7 Aug 7 Aug 9 Aug 14 Aug 14 Aug 16 Aug 21 Aug 21 Aug 23 Aug 28 Aug 28 (Invitational) Aug 30#1 (Eddie Merckx) Aug 30#2 (With Aero)
Sep 2 (40km) Sep 4 Sep 6 Sep 11 Sep 13 Sep 18

OTT Rankings
Best       Best by category
WTT Rankings for All Participants
5 Best Speeds (≥3 15km, ≤1 10km)     5 Best Speeds (≥3 15km, ≤1 10km) by category
OTT Best Three 15km Rankings
Overall     by category     age-Hcap Female   age-Hcap Male
Other years
TT Calculator All TT People All TT events
ABC Home VVV Home
CKAP GOLD MEDAL
Other Links

Note: OTT data from 2003 through 2006-Apr-14 and 2007-Apr-06-? and WTT from 2008-? is taken from the official OBC site.

Please send your comments and suggestions to: Celia McInnis
Copyright © 1998-2011 Celia McInnis. All rights reserved. Links are welcomed.